Time;durP1;ratioP1;P1;durP2;ratioP2;P2;SDS_P1;SDS_P2;PMS_P1;PMS_P2;Temp;Humidity;BMP_temperature;BMP_pressure;BME280_temperature;BME280_humidity;BME280_pressure;Samples;Min_cycle;Max_cycle;Signal;HPM_P1;HPM_P2
2024/02/16 00:03:59;;;;;;;0.50;0.50;;;18.70;44.10;;;;;;8431388;28;20394;-54
2024/02/16 00:08:02;;;;;;;0.35;0.35;;;18.70;44.10;;;;;;8412948;28;20047;-54
2024/02/16 00:12:03;;;;;;;0.80;0.60;;;18.70;44.10;;;;;;8430995;28;20080;-54
2024/02/16 00:16:04;;;;;;;0.52;0.50;;;18.70;44.10;;;;;;8431085;28;20035;-54
2024/02/16 00:20:07;;;;;;;1.30;0.60;;;18.70;44.10;;;;;;8430976;28;20466;-54
2024/02/16 00:24:08;;;;;;;0.43;0.43;;;18.70;44.10;;;;;;8431323;28;20086;-54
2024/02/16 00:28:09;;;;;;;0.30;0.30;;;18.70;44.10;;;;;;8430521;28;20060;-52
2024/02/16 00:32:10;;;;;;;0.57;0.50;;;18.70;44.60;;;;;;8430415;28;20536;-53
2024/02/16 00:36:11;;;;;;;0.35;0.35;;;18.70;44.10;;;;;;8430597;28;20085;-52
2024/02/16 00:40:12;;;;;;;0.47;0.47;;;18.70;44.10;;;;;;8430313;28;20028;-53
2024/02/16 00:44:12;;;;;;;;;;;18.70;44.10;;;;;;8430301;28;20024;-53
2024/02/16 00:48:13;;;;;;;0.30;0.30;;;18.70;44.10;;;;;;8430196;28;20477;-53
2024/02/16 00:52:14;;;;;;;0.77;0.45;;;18.70;44.10;;;;;;8429768;28;20028;-53
2024/02/16 00:56:14;;;;;;;0.30;0.30;;;18.70;44.10;;;;;;8429687;28;20111;-54
2024/02/16 01:00:15;;;;;;;0.40;0.40;;;18.70;44.10;;;;;;8429917;28;20025;-54
2024/02/16 01:04:16;;;;;;;0.40;0.40;;;18.70;44.10;;;;;;8429358;28;20035;-53
2024/02/16 01:08:17;;;;;;;0.45;0.30;;;18.70;44.10;;;;;;8429393;28;20060;-53
2024/02/16 01:12:18;;;;;;;0.45;0.40;;;18.70;44.10;;;;;;8410765;28;20068;-54
2024/02/16 01:16:18;;;;;;;0.70;0.65;;;18.60;44.10;;;;;;8429033;28;20036;-53
2024/02/16 01:20:20;;;;;;;0.40;0.40;;;18.70;44.10;;;;;;8429163;28;20032;-52
2024/02/16 01:24:21;;;;;;;0.47;0.40;;;18.70;44.10;;;;;;8429297;28;20311;-53
2024/02/16 01:28:22;;;;;;;0.50;0.50;;;18.70;44.20;;;;;;8410662;28;20072;-52
2024/02/16 01:32:23;;;;;;;0.40;0.40;;;18.70;44.10;;;;;;8428377;28;20081;-53
2024/02/16 01:36:24;;;;;;;0.50;0.50;;;18.70;44.20;;;;;;8428384;28;20036;-54
2024/02/16 01:40:26;;;;;;;0.43;0.43;;;18.70;44.20;;;;;;8428534;28;20107;-53
2024/02/16 01:44:26;;;;;;;0.75;0.50;;;18.60;44.10;;;;;;8428058;28;20050;-54
2024/02/16 01:48:28;;;;;;;0.67;0.40;;;18.70;44.20;;;;;;8427998;28;20028;-52
2024/02/16 01:52:30;;;;;;;0.95;0.50;;;18.60;44.10;;;;;;8427594;28;20829;-53
2024/02/16 01:56:31;;;;;;;0.38;0.38;;;18.60;44.10;;;;;;8427129;28;20078;-53
2024/02/16 02:00:32;;;;;;;0.57;0.57;;;18.60;44.20;;;;;;8427494;28;20508;-52
2024/02/16 02:04:33;;;;;;;0.35;0.35;;;18.60;44.10;;;;;;8427443;28;20065;-52
2024/02/16 02:08:34;;;;;;;0.55;0.50;;;18.60;44.10;;;;;;8427449;28;20436;-52
2024/02/16 02:12:35;;;;;;;0.52;0.52;;;18.60;44.10;;;;;;8426841;28;20036;-51
2024/02/16 02:16:37;;;;;;;0.38;0.38;;;18.60;44.20;;;;;;8408991;28;20036;-51
2024/02/16 02:20:37;;;;;;;0.55;0.50;;;18.60;44.20;;;;;;8427266;28;20024;-53
2024/02/16 02:24:38;;;;;;;0.40;0.40;;;18.60;44.20;;;;;;8427013;28;20074;-53
2024/02/16 02:28:39;;;;;;;0.30;0.30;;;18.60;44.20;;;;;;8426691;28;20036;-53
2024/02/16 02:32:42;;;;;;;0.40;0.40;;;18.60;44.20;;;;;;8426825;28;20539;-50
2024/02/16 02:36:43;;;;;;;0.52;0.40;;;18.60;44.20;;;;;;8426674;28;20477;-53
2024/02/16 02:40:44;;;;;;;0.40;0.40;;;18.60;44.20;;;;;;8426632;28;20108;-52
2024/02/16 02:44:49;;;;;;;0.60;0.52;;;18.60;44.20;;;;;;8426642;28;20040;-52
2024/02/16 02:48:51;;;;;;;0.60;0.60;;;18.60;44.30;;;;;;8426547;28;20504;-53
2024/02/16 02:52:52;;;;;;;0.93;0.60;;;18.60;44.20;;;;;;8426362;28;20485;-52
2024/02/16 02:56:53;;;;;;;0.95;0.47;;;18.60;44.30;;;;;;8426266;28;20413;-53
2024/02/16 03:00:54;;;;;;;0.50;0.50;;;18.60;44.20;;;;;;8426270;28;20580;-54
2024/02/16 03:04:54;;;;;;;0.40;0.40;;;18.60;44.20;;;;;;8426153;28;20043;-54
2024/02/16 03:08:55;;;;;;;0.43;0.43;;;18.60;44.20;;;;;;8427329;28;20036;-53
2024/02/16 03:12:56;;;;;;;0.43;0.40;;;18.60;44.20;;;;;;8414761;28;20511;-53
2024/02/16 03:16:57;;;;;;;0.47;0.47;;;18.60;44.20;;;;;;8433119;28;20039;-53
2024/02/16 03:20:58;;;;;;;0.30;0.30;;;18.60;44.20;;;;;;8432825;28;20028;-53
2024/02/16 03:24:59;;;;;;;0.45;0.40;;;18.60;44.20;;;;;;8414491;28;20039;-54
2024/02/16 03:28:59;;;;;;;0.65;0.50;;;18.60;44.20;;;;;;8432866;28;20067;-53
2024/02/16 03:33:00;;;;;;;0.43;0.43;;;18.60;44.20;;;;;;8432464;28;20040;-54
2024/02/16 03:37:01;;;;;;;0.50;0.50;;;18.60;44.20;;;;;;8414237;28;20274;-53
2024/02/16 03:41:01;;;;;;;0.50;0.50;;;18.60;44.20;;;;;;8432444;28;20328;-54
2024/02/16 03:45:03;;;;;;;0.50;0.40;;;18.60;44.20;;;;;;8432314;28;20036;-53
2024/02/16 03:49:03;;;;;;;0.50;0.47;;;18.60;44.20;;;;;;8431964;28;20039;-53
2024/02/16 03:53:04;;;;;;;0.50;0.50;;;18.60;44.20;;;;;;8431772;28;20036;-53
2024/02/16 03:57:09;;;;;;;0.40;0.40;;;18.60;44.20;;;;;;8431579;28;20036;-54
2024/02/16 04:01:09;;;;;;;0.45;0.32;;;18.60;44.20;;;;;;8431538;28;20043;-51
2024/02/16 04:05:10;;;;;;;0.50;0.50;;;18.60;44.20;;;;;;8431863;28;20482;-54
2024/02/16 04:09:12;;;;;;;0.52;0.52;;;18.60;44.20;;;;;;8431213;28;20044;-55
2024/02/16 04:13:12;;;;;;;0.50;0.50;;;18.60;44.20;;;;;;8412825;28;20056;-54
2024/02/16 04:17:13;;;;;;;0.63;0.50;;;18.60;44.20;;;;;;8431280;28;20114;-54
2024/02/16 04:21:14;;;;;;;0.40;0.40;;;18.60;44.20;;;;;;8430365;28;20027;-54
2024/02/16 04:25:14;;;;;;;0.50;0.50;;;18.60;44.30;;;;;;8431269;28;20028;-53
2024/02/16 04:29:16;;;;;;;0.45;0.43;;;18.60;44.20;;;;;;8430723;28;20047;-54
2024/02/16 04:33:16;;;;;;;1.13;0.93;;;18.60;44.20;;;;;;8431417;28;20068;-52
2024/02/16 04:37:18;;;;;;;0.45;0.45;;;18.60;44.20;;;;;;8430662;28;20081;-55
2024/02/16 04:41:22;;;;;;;0.40;0.40;;;18.60;44.20;;;;;;8430492;28;20024;-55
2024/02/16 04:45:23;;;;;;;0.40;0.40;;;18.60;44.20;;;;;;8430215;28;20036;-54
2024/02/16 04:49:23;;;;;;;0.50;0.50;;;18.60;44.30;;;;;;8412024;28;20084;-54
2024/02/16 04:53:24;;;;;;;0.70;0.60;;;18.60;44.20;;;;;;8429724;28;20040;-55
2024/02/16 04:57:25;;;;;;;0.60;0.60;;;18.60;44.20;;;;;;8429529;28;20028;-53
2024/02/16 05:01:26;;;;;;;0.35;0.30;;;18.60;44.20;;;;;;8429837;28;20519;-55
2024/02/16 05:05:26;;;;;;;0.52;0.52;;;18.60;44.30;;;;;;8430413;28;20028;-53
2024/02/16 05:09:27;;;;;;;0.55;0.45;;;18.50;44.20;;;;;;8429676;28;20063;-54
2024/02/16 05:13:28;;;;;;;0.60;0.60;;;18.60;44.30;;;;;;8429077;28;20080;-54
2024/02/16 05:17:28;;;;;;;0.57;0.50;;;18.60;44.30;;;;;;8428831;28;20487;-52
2024/02/16 05:21:29;;;;;;;0.80;0.60;;;18.60;44.20;;;;;;8429030;28;20485;-49
2024/02/16 05:25:30;;;;;;;0.68;0.57;;;18.60;44.20;;;;;;8429460;28;20029;-52
2024/02/16 05:29:30;;;;;;;0.50;0.50;;;18.60;44.10;;;;;;8428608;28;20442;-53
2024/02/16 05:33:31;;;;;;;0.60;0.60;;;18.70;44.10;;;;;;8427416;28;20075;-50
2024/02/16 05:37:32;;;;;;;0.47;0.47;;;18.70;44.00;;;;;;8428514;28;20086;-50
2024/02/16 05:41:33;;;;;;;0.88;0.63;;;18.80;43.90;;;;;;8428342;28;20289;-52
2024/02/16 05:45:35;;;;;;;0.52;0.47;;;18.80;43.90;;;;;;8428053;28;20063;-52
2024/02/16 05:49:37;;;;;;;0.73;0.60;;;18.80;43.80;;;;;;8428331;28;20063;-51
2024/02/16 05:53:38;;;;;;;0.60;0.60;;;18.80;43.80;;;;;;8428027;28;20067;-53
2024/02/16 05:57:39;;;;;;;0.68;0.57;;;18.80;43.70;;;;;;8427681;28;20028;-52
2024/02/16 06:01:40;;;;;;;0.75;0.50;;;18.80;43.70;;;;;;8427680;28;20032;-53
2024/02/16 06:05:43;;;;;;;1.13;0.50;;;18.90;43.70;;;;;;8427627;28;20071;-51
2024/02/16 06:09:44;;;;;;;0.47;0.47;;;18.80;43.70;;;;;;8427569;28;20040;-53
2024/02/16 06:13:45;;;;;;;0.82;0.60;;;18.90;43.70;;;;;;8427064;28;20055;-52
2024/02/16 06:17:48;;;;;;;0.50;0.40;;;18.80;43.70;;;;;;8427374;28;20032;-52
2024/02/16 06:21:49;;;;;;;0.30;0.30;;;18.80;43.70;;;;;;8427219;28;20024;-52
2024/02/16 06:25:49;;;;;;;0.52;0.50;;;18.80;43.70;;;;;;8426852;28;20071;-52
2024/02/16 06:29:50;;;;;;;1.55;0.60;;;18.90;43.70;;;;;;8409192;28;20056;-52
2024/02/16 06:33:51;;;;;;;0.50;0.50;;;18.90;43.70;;;;;;8426883;28;20058;-51
2024/02/16 06:37:51;;;;;;;0.67;0.60;;;18.90;43.70;;;;;;8427021;28;20118;-52
2024/02/16 06:41:53;;;;;;;0.55;0.40;;;18.90;43.70;;;;;;8426522;28;20351;-52
2024/02/16 06:45:56;;;;;;;0.52;0.50;;;18.90;43.70;;;;;;8426535;28;20043;-52
2024/02/16 06:49:57;;;;;;;0.60;0.50;;;18.90;43.70;;;;;;8426608;28;20169;-51
2024/02/16 06:53:57;;;;;;;0.30;0.30;;;18.80;43.70;;;;;;8426149;28;20134;-51
2024/02/16 06:57:58;;;;;;;0.47;0.47;;;18.80;43.80;;;;;;8426140;28;20487;-51
2024/02/16 07:01:59;;;;;;;0.57;0.57;;;18.80;43.80;;;;;;8426355;28;20060;-51
2024/02/16 07:05:59;;;;;;;0.68;0.50;;;18.80;43.90;;;;;;8426097;28;20082;-52
2024/02/16 07:10:00;;;;;;;0.52;0.45;;;18.80;43.90;;;;;;8426097;28;20036;-51
2024/02/16 07:14:02;;;;;;;0.57;0.57;;;18.80;44.00;;;;;;8425875;28;20418;-51
2024/02/16 07:18:03;;;;;;;0.68;0.50;;;18.80;43.90;;;;;;8425908;28;20035;-52
2024/02/16 07:22:06;;;;;;;0.50;0.50;;;18.80;43.90;;;;;;8425758;28;20397;-53
2024/02/16 07:26:07;;;;;;;0.57;0.40;;;18.80;43.90;;;;;;8425740;28;20032;-51
2024/02/16 07:30:10;;;;;;;0.50;0.43;;;18.80;43.90;;;;;;8425652;28;20111;-52
2024/02/16 07:34:11;;;;;;;0.40;0.40;;;18.80;43.90;;;;;;8425752;28;20040;-52
2024/02/16 07:38:12;;;;;;;0.73;0.60;;;18.80;43.90;;;;;;8407495;28;20122;-51
2024/02/16 07:42:13;;;;;;;0.80;0.75;;;18.80;43.90;;;;;;8425514;28;20490;-51
2024/02/16 07:46:14;;;;;;;0.75;0.60;;;18.80;43.80;;;;;;8425842;28;20024;-53
2024/02/16 07:50:20;;;;;;;0.63;0.60;;;18.80;43.80;;;;;;8425519;28;20367;-52
2024/02/16 07:54:20;;;;;;;0.95;0.50;;;18.80;43.80;;;;;;8425541;28;20040;-53
2024/02/16 07:58:21;;;;;;;0.47;0.40;;;18.80;43.80;;;;;;8431672;28;20071;-51
2024/02/16 08:02:22;;;;;;;1.33;0.50;;;18.80;43.80;;;;;;8431549;28;20036;-53
2024/02/16 08:06:26;;;;;;;0.70;0.55;;;18.80;43.80;;;;;;8431312;28;20086;-53
2024/02/16 08:10:27;;;;;;;0.98;0.88;;;18.90;43.80;;;;;;8431255;28;20033;-52
2024/02/16 08:14:28;;;;;;;0.65;0.60;;;18.80;43.80;;;;;;8431128;28;20087;-50
2024/02/16 08:18:29;;;;;;;0.60;0.45;;;18.90;43.80;;;;;;8430934;28;20059;-52
2024/02/16 08:22:29;;;;;;;0.93;0.60;;;18.90;43.80;;;;;;8430862;28;20685;-51
2024/02/16 08:26:30;;;;;;;0.68;0.63;;;18.80;43.80;;;;;;8430803;28;20093;-53
2024/02/16 08:30:31;;;;;;;0.60;0.50;;;18.90;43.80;;;;;;8430642;28;20047;-53
2024/02/16 08:34:31;;;;;;;0.60;0.60;;;18.80;43.70;;;;;;8430520;28;20051;-52
2024/02/16 08:38:33;;;;;;;0.50;0.50;;;18.90;43.80;;;;;;8430544;28;20648;-52
2024/02/16 08:42:34;;;;;;;;;;;18.90;43.70;;;;;;8430686;28;20546;-52
2024/02/16 08:46:35;;;;;;;0.50;0.50;;;18.90;43.70;;;;;;8429982;28;20330;-51
2024/02/16 08:50:37;;;;;;;0.50;0.50;;;18.90;43.70;;;;;;8430193;28;20276;-53
2024/02/16 08:54:37;;;;;;;1.13;0.60;;;18.90;43.70;;;;;;8429730;28;20024;-52
2024/02/16 08:58:38;;;;;;;0.88;0.60;;;18.90;43.70;;;;;;8429606;28;20036;-53
2024/02/16 09:02:39;;;;;;;0.57;0.52;;;18.90;43.80;;;;;;8429602;28;20035;-52
2024/02/16 09:06:40;;;;;;;0.60;0.60;;;18.90;43.80;;;;;;8429658;28;20032;-52
2024/02/16 09:10:41;;;;;;;0.70;0.70;;;18.90;43.70;;;;;;8430358;28;20524;-51
2024/02/16 09:14:41;;;;;;;0.73;0.55;;;18.90;43.70;;;;;;8429171;28;20131;-52
2024/02/16 09:18:42;;;;;;;0.63;0.60;;;18.90;43.70;;;;;;8411217;28;20077;-51
2024/02/16 09:22:46;;;;;;;0.57;0.57;;;18.90;43.70;;;;;;8410683;28;20036;-50
2024/02/16 09:26:47;;;;;;;0.60;0.60;;;18.90;43.70;;;;;;8429260;28;20035;-51
2024/02/16 09:30:48;;;;;;;0.47;0.47;;;18.90;43.70;;;;;;8411113;28;20119;-52
2024/02/16 09:34:48;;;;;;;1.05;0.70;;;18.90;43.70;;;;;;8428750;28;20040;-50
2024/02/16 09:38:49;;;;;;;0.80;0.57;;;18.90;43.70;;;;;;8410504;28;20422;-51
2024/02/16 09:42:50;;;;;;;0.63;0.50;;;18.90;43.70;;;;;;8393802;28;20032;-51
2024/02/16 09:46:54;;;;;;;0.50;0.50;;;18.90;43.70;;;;;;8428420;28;20067;-53
2024/02/16 09:51:01;;;;;;;0.55;0.55;;;18.90;43.70;;;;;;8428081;28;20024;-52
2024/02/16 09:55:01;;;;;;;0.68;0.45;;;18.90;43.70;;;;;;8428074;28;20036;-53
2024/02/16 09:59:02;;;;;;;2.47;0.52;;;18.90;44.20;;;;;;8427940;28;20035;-55
2024/02/16 10:03:04;;;;;;;0.50;0.50;;;18.90;43.70;;;;;;8409753;28;20063;-55
2024/02/16 10:07:05;;;;;;;0.50;0.50;;;18.90;43.60;;;;;;8427711;28;20028;-55
2024/02/16 10:11:07;;;;;;;;;;;18.90;43.70;;;;;;8427806;28;20109;-54
2024/02/16 10:15:09;;;;;;;0.50;0.50;;;18.90;43.60;;;;;;8427580;28;19916;-54
2024/02/16 10:19:12;;;;;;;0.63;0.60;;;18.90;43.60;;;;;;8427048;28;20020;-53
2024/02/16 10:23:13;;;;;;;0.70;0.70;;;18.90;43.60;;;;;;8426970;28;20449;-54
2024/02/16 10:27:20;;;;;;;0.43;0.40;;;18.90;43.60;;;;;;8427495;28;20083;-54
2024/02/16 10:31:27;;;;;;;1.67;0.73;;;19.00;43.70;;;;;;8427096;28;20040;-53
2024/02/16 10:35:30;;;;;;;0.55;0.50;;;18.90;43.60;;;;;;8426878;28;20035;-54
2024/02/16 10:39:32;;;;;;;0.57;0.50;;;19.00;43.70;;;;;;8427019;28;20060;-55
2024/02/16 10:43:32;;;;;;;0.40;0.40;;;18.90;43.60;;;;;;8426826;28;20036;-55
2024/02/16 10:47:33;;;;;;;0.82;0.60;;;18.90;43.70;;;;;;8426662;28;20486;-54
2024/02/16 10:51:40;;;;;;;0.50;0.50;;;18.90;43.70;;;;;;8426625;28;20405;-54
2024/02/16 10:55:43;;;;;;;1.27;0.50;;;18.90;43.70;;;;;;8426582;28;20114;-53
2024/02/16 10:59:45;;;;;;;0.60;0.60;;;18.90;43.70;;;;;;8393120;28;20039;-54
2024/02/16 11:03:46;;;;;;;1.70;0.80;;;18.90;43.80;;;;;;8392991;28;20074;-55
2024/02/16 11:07:46;;;;;;;0.50;0.50;;;18.90;43.80;;;;;;8392766;28;20032;-54
2024/02/16 11:11:53;;;;;;;0.50;0.50;;;18.90;43.80;;;;;;8392926;28;20059;-51
2024/02/16 11:16:06;;;;;;;0.70;0.60;;;18.90;44.00;;;;;;8374819;28;20033;-52
2024/02/16 11:20:07;;;;;;;0.68;0.50;;;18.90;43.80;;;;;;8392700;28;20371;-53
2024/02/16 11:24:08;;;;;;;0.57;0.55;;;18.90;43.80;;;;;;8392361;28;20025;-53
2024/02/16 11:28:09;;;;;;;0.40;0.40;;;18.90;43.80;;;;;;8413264;28;20086;-53
2024/02/16 11:32:10;;;;;;;0.50;0.50;;;18.90;43.80;;;;;;8430745;28;20032;-53
2024/02/16 11:36:11;;;;;;;0.50;0.50;;;18.90;43.90;;;;;;8397786;28;20081;-52
2024/02/16 11:40:12;;;;;;;0.45;0.45;;;18.90;43.80;;;;;;8433294;28;20061;-53
2024/02/16 11:44:16;;;;;;;0.50;0.50;;;18.90;43.80;;;;;;8432049;28;20115;-53
2024/02/16 11:48:24;;;;;;;0.68;0.60;;;18.90;43.80;;;;;;8432333;28;20059;-53
2024/02/16 11:52:25;;;;;;;0.60;0.60;;;18.90;43.80;;;;;;8431731;28;20084;-52
2024/02/16 11:56:26;;;;;;;0.60;0.50;;;18.90;43.80;;;;;;8431741;28;20036;-51
2024/02/16 12:00:26;;;;;;;;;;;18.90;43.80;;;;;;8432369;28;20085;-51
2024/02/16 12:04:28;;;;;;;0.50;0.50;;;18.90;43.80;;;;;;8431634;28;20422;-51
2024/02/16 12:08:34;;;;;;;1.02;0.57;;;18.90;43.80;;;;;;8431361;28;20036;-51
2024/02/16 12:12:35;;;;;;;0.57;0.50;;;18.90;43.80;;;;;;8431221;28;20052;-53
2024/02/16 12:16:37;;;;;;;0.60;0.60;;;18.90;43.80;;;;;;8430990;28;20024;-52
2024/02/16 12:20:37;;;;;;;0.52;0.45;;;18.80;43.80;;;;;;8431114;28;20059;-53
2024/02/16 12:24:38;;;;;;;0.68;0.50;;;18.80;43.80;;;;;;8431236;28;20551;-53
2024/02/16 12:28:40;;;;;;;0.60;0.60;;;18.90;43.80;;;;;;8430557;28;20047;-53
2024/02/16 12:32:41;;;;;;;0.50;0.50;;;18.90;43.80;;;;;;8430540;28;20487;-54
2024/02/16 12:36:42;;;;;;;0.80;0.60;;;18.90;43.80;;;;;;8430518;28;20172;-53
2024/02/16 12:40:43;;;;;;;0.30;0.30;;;18.90;43.80;;;;;;8429982;28;20028;-53
2024/02/16 12:44:44;;;;;;;0.57;0.52;;;18.90;43.80;;;;;;8430395;28;20089;-54
2024/02/16 12:48:45;;;;;;;0.68;0.57;;;18.90;44.40;;;;;;8430011;28;20032;-54
2024/02/16 12:52:45;;;;;;;0.60;0.60;;;18.80;43.90;;;;;;8411793;28;20390;-54
2024/02/16 12:56:47;;;;;;;0.43;0.43;;;18.90;43.90;;;;;;8429716;28;20078;-53
2024/02/16 13:00:48;;;;;;;0.73;0.50;;;18.90;43.90;;;;;;8429706;28;20036;-53
2024/02/16 13:04:48;;;;;;;0.40;0.40;;;18.90;43.90;;;;;;8429639;28;20047;-54
2024/02/16 13:08:49;;;;;;;0.57;0.52;;;18.90;43.90;;;;;;8429378;28;20047;-53
2024/02/16 13:12:50;;;;;;;0.47;0.47;;;18.90;43.90;;;;;;8428979;28;20055;-53
2024/02/16 13:16:51;;;;;;;0.47;0.47;;;18.80;43.90;;;;;;8429188;28;20508;-53
2024/02/16 13:20:51;;;;;;;0.40;0.40;;;18.80;43.90;;;;;;8410940;28;20036;-53
2024/02/16 13:24:52;;;;;;;0.43;0.40;;;18.80;43.90;;;;;;8428961;28;20039;-54
2024/02/16 13:28:54;;;;;;;0.52;0.47;;;18.80;43.90;;;;;;8428719;28;20051;-54
2024/02/16 13:32:55;;;;;;;0.50;0.50;;;18.90;44.00;;;;;;8428651;28;20511;-55
2024/02/16 13:36:56;;;;;;;0.63;0.57;;;18.80;43.90;;;;;;8428427;28;20393;-55
2024/02/16 13:40:57;;;;;;;0.50;0.50;;;18.80;43.90;;;;;;8428324;28;20085;-54
2024/02/16 13:44:58;;;;;;;0.55;0.55;;;18.80;43.90;;;;;;8428457;28;20115;-54
2024/02/16 13:48:59;;;;;;;0.60;0.60;;;18.80;43.90;;;;;;8427977;28;20063;-55
2024/02/16 13:52:59;;;;;;;0.40;0.40;;;18.80;43.90;;;;;;8409055;28;20043;-54
2024/02/16 13:57:00;;;;;;;0.43;0.40;;;18.80;43.90;;;;;;8428102;28;20033;-53
2024/02/16 14:01:03;;;;;;;0.50;0.50;;;18.80;44.00;;;;;;8427721;28;20398;-54
2024/02/16 14:05:04;;;;;;;0.50;0.50;;;18.80;44.00;;;;;;8427727;28;20410;-55
2024/02/16 14:09:08;;;;;;;0.57;0.45;;;18.80;44.00;;;;;;8427673;28;20039;-54
2024/02/16 14:13:09;;;;;;;0.40;0.40;;;18.80;44.00;;;;;;8427108;28;20060;-54
2024/02/16 14:17:10;;;;;;;0.63;0.45;;;18.80;44.00;;;;;;8427308;28;20032;-52
2024/02/16 14:21:11;;;;;;;0.60;0.60;;;18.80;44.00;;;;;;8427246;28;20043;-54
2024/02/16 14:25:13;;;;;;;0.50;0.50;;;18.80;44.00;;;;;;8427056;28;20485;-54
2024/02/16 14:29:13;;;;;;;0.93;0.50;;;18.80;44.00;;;;;;8426691;28;20068;-54
2024/02/16 14:33:16;;;;;;;1.98;0.70;;;18.80;44.10;;;;;;8426803;28;20504;-54
2024/02/16 14:37:17;;;;;;;1.00;0.60;;;18.80;44.10;;;;;;8408591;28;20394;-54
2024/02/16 14:41:18;;;;;;;0.68;0.40;;;18.80;44.10;;;;;;8427075;28;20055;-52
2024/02/16 14:45:20;;;;;;;0.50;0.50;;;18.80;44.10;;;;;;8427607;28;20042;-52
2024/02/16 14:49:22;;;;;;;0.60;0.43;;;18.80;44.10;;;;;;8426315;28;20047;-53
2024/02/16 14:53:23;;;;;;;0.40;0.40;;;18.80;44.10;;;;;;8426416;28;20036;-52
2024/02/16 14:57:24;;;;;;;0.65;0.52;;;18.80;44.10;;;;;;8426388;28;20112;-52
2024/02/16 15:01:26;;;;;;;0.40;0.40;;;18.80;44.10;;;;;;8426262;28;20102;-52
2024/02/16 15:05:27;;;;;;;0.40;0.40;;;18.80;44.10;;;;;;8426092;28;20169;-52
2024/02/16 15:09:28;;;;;;;0.50;0.50;;;18.80;44.10;;;;;;8426209;28;20036;-53
2024/02/16 15:13:30;;;;;;;0.73;0.52;;;18.80;44.20;;;;;;8426019;28;20168;-53
2024/02/16 15:17:31;;;;;;;0.50;0.50;;;18.80;44.10;;;;;;8425905;28;20705;-51
2024/02/16 15:21:32;;;;;;;0.88;0.60;;;18.80;44.20;;;;;;8426047;28;20684;-52
2024/02/16 15:25:32;;;;;;;0.45;0.40;;;18.80;44.10;;;;;;8425883;28;20489;-52
2024/02/16 15:29:33;;;;;;;0.55;0.55;;;18.80;44.10;;;;;;8425925;28;20032;-53
2024/02/16 15:33:34;;;;;;;0.40;0.40;;;18.80;44.10;;;;;;8425892;28;20032;-52
2024/02/16 15:37:35;;;;;;;0.52;0.40;;;18.80;44.10;;;;;;8425482;28;20052;-52
2024/02/16 15:41:36;;;;;;;0.52;0.40;;;18.80;44.10;;;;;;8425611;28;20489;-51
2024/02/16 15:45:40;;;;;;;0.38;0.38;;;18.80;44.20;;;;;;8425655;28;20036;-52
2024/02/16 15:49:40;;;;;;;0.30;0.30;;;18.80;44.10;;;;;;8425717;28;20028;-53
2024/02/16 15:53:41;;;;;;;0.40;0.40;;;18.80;44.10;;;;;;8425516;28;20048;-53
2024/02/16 15:57:42;;;;;;;0.47;0.40;;;18.80;44.10;;;;;;8425240;28;20039;-54
2024/02/16 16:01:43;;;;;;;0.52;0.50;;;18.80;44.10;;;;;;8425273;28;20032;-54
2024/02/16 16:05:43;;;;;;;0.50;0.50;;;18.80;44.10;;;;;;8425333;28;20043;-52
2024/02/16 16:09:44;;;;;;;0.40;0.40;;;18.80;44.10;;;;;;8425396;28;20044;-55
2024/02/16 16:13:45;;;;;;;0.70;0.60;;;18.80;44.10;;;;;;8424873;28;20787;-53
2024/02/16 16:17:45;;;;;;;0.60;0.52;;;18.80;44.10;;;;;;8429138;28;20032;-55
2024/02/16 16:21:46;;;;;;;0.75;0.55;;;18.80;44.10;;;;;;8430376;28;20028;-55
2024/02/16 16:25:47;;;;;;;0.40;0.40;;;18.80;44.10;;;;;;8430768;28;20042;-53
2024/02/16 16:29:47;;;;;;;0.40;0.40;;;18.80;44.10;;;;;;8430983;28;20035;-53
2024/02/16 16:33:49;;;;;;;0.77;0.77;;;18.80;44.10;;;;;;8430832;28;20039;-55
2024/02/16 16:37:49;;;;;;;;;;;18.80;44.10;;;;;;8413555;28;20370;-53
2024/02/16 16:41:51;;;;;;;0.40;0.40;;;18.80;44.10;;;;;;8430971;28;19927;-54
2024/02/16 16:45:51;;;;;;;0.63;0.50;;;18.80;44.10;;;;;;8430331;28;20484;-54
2024/02/16 16:49:52;;;;;;;0.40;0.40;;;18.80;44.10;;;;;;8430518;28;20040;-55
2024/02/16 16:53:53;;;;;;;1.75;0.40;;;18.80;44.10;;;;;;8429860;28;20290;-54
2024/02/16 16:57:54;;;;;;;0.40;0.40;;;18.80;44.10;;;;;;8429898;28;20036;-54
2024/02/16 17:01:55;;;;;;;0.40;0.40;;;18.80;44.10;;;;;;8429941;28;20028;-51
2024/02/16 17:05:56;;;;;;;1.27;0.50;;;18.80;44.10;;;;;;8429694;28;20036;-52
2024/02/16 17:09:57;;;;;;;0.52;0.50;;;18.80;44.10;;;;;;8429808;28;20107;-53
2024/02/16 17:13:59;;;;;;;0.40;0.40;;;18.80;44.10;;;;;;8429306;28;20455;-53
2024/02/16 17:18:00;;;;;;;0.60;0.60;;;18.80;44.10;;;;;;8429323;28;20028;-51
2024/02/16 17:22:03;;;;;;;0.50;0.50;;;18.80;44.20;;;;;;8428997;28;20054;-50
2024/02/16 17:26:04;;;;;;;0.50;0.50;;;18.80;44.20;;;;;;8429032;28;20036;-51
2024/02/16 17:30:06;;;;;;;0.40;0.40;;;18.80;44.20;;;;;;8427971;28;20027;-52
2024/02/16 17:34:08;;;;;;;0.50;0.50;;;18.80;44.20;;;;;;8429029;28;20080;-53
2024/02/16 17:38:08;;;;;;;0.57;0.50;;;18.80;44.20;;;;;;8428752;28;20040;-53
2024/02/16 17:42:09;;;;;;;0.40;0.40;;;18.80;44.20;;;;;;8428295;28;20063;-53
2024/02/16 17:46:10;;;;;;;0.40;0.40;;;18.80;44.20;;;;;;8428419;28;20031;-53
2024/02/16 17:50:12;;;;;;;0.40;0.40;;;18.80;44.20;;;;;;8428433;28;20032;-51
2024/02/16 17:54:14;;;;;;;0.68;0.68;;;18.80;44.20;;;;;;8428115;28;20032;-49
2024/02/16 17:58:14;;;;;;;0.50;0.50;;;18.80;44.20;;;;;;8428016;28;20056;-52
2024/02/16 18:02:15;;;;;;;0.30;0.30;;;18.80;44.20;;;;;;8428185;28;20032;-51
2024/02/16 18:06:16;;;;;;;0.40;0.40;;;18.80;44.20;;;;;;8427806;28;20028;-51
2024/02/16 18:10:17;;;;;;;0.38;0.38;;;18.80;44.10;;;;;;8427927;28;20028;-54
2024/02/16 18:14:18;;;;;;;;;;;18.80;44.10;;;;;;8427748;28;20060;-54
2024/02/16 18:18:19;;;;;;;0.40;0.40;;;18.90;44.10;;;;;;8427433;28;19912;-54
2024/02/16 18:22:19;;;;;;;0.30;0.30;;;18.90;44.10;;;;;;8427491;28;20024;-54
2024/02/16 18:26:21;;;;;;;0.50;0.50;;;18.80;44.10;;;;;;8427004;28;20107;-53
2024/02/16 18:30:22;;;;;;;0.50;0.45;;;18.80;44.10;;;;;;8427206;28;20115;-53
2024/02/16 18:34:23;;;;;;;0.65;0.57;;;18.80;44.10;;;;;;8426977;28;20047;-54
2024/02/16 18:38:25;;;;;;;0.38;0.38;;;18.80;44.20;;;;;;8426415;28;20016;-54
2024/02/16 18:42:25;;;;;;;0.40;0.40;;;18.80;44.10;;;;;;8426659;28;20032;-55
2024/02/16 18:46:26;;;;;;;0.43;0.43;;;18.80;44.10;;;;;;8426754;28;20032;-54
2024/02/16 18:50:27;;;;;;;0.93;0.60;;;18.80;44.10;;;;;;8426725;28;20394;-54
2024/02/16 18:54:27;;;;;;;0.93;0.47;;;18.80;44.10;;;;;;8426471;28;20040;-54
2024/02/16 18:58:28;;;;;;;0.57;0.50;;;18.80;44.10;;;;;;8408277;28;20032;-54
2024/02/16 19:02:29;;;;;;;0.40;0.40;;;18.80;44.10;;;;;;8426183;28;20086;-54
2024/02/16 19:06:30;;;;;;;0.50;0.50;;;18.80;44.10;;;;;;8408137;28;20039;-54
2024/02/16 19:10:32;;;;;;;0.65;0.40;;;18.80;44.10;;;;;;8426157;28;20526;-54
2024/02/16 19:14:32;;;;;;;;;;;18.80;44.10;;;;;;8407988;28;20139;-55
2024/02/16 19:18:33;;;;;;;0.50;0.50;;;18.80;44.60;;;;;;8426075;28;19912;-54
2024/02/16 19:22:34;;;;;;;0.40;0.40;;;18.80;44.10;;;;;;8425953;28;20059;-54
2024/02/16 19:26:39;;;;;;;0.40;0.40;;;18.80;44.10;;;;;;8425370;28;20052;-53
2024/02/16 19:30:40;;;;;;;0.50;0.50;;;18.80;44.10;;;;;;8425894;28;20062;-53
2024/02/16 19:34:41;;;;;;;0.50;0.50;;;18.80;44.10;;;;;;8425782;28;20036;-53
2024/02/16 19:38:43;;;;;;;0.40;0.40;;;18.80;44.10;;;;;;8425631;28;20043;-53
2024/02/16 19:42:44;;;;;;;0.68;0.60;;;18.80;44.10;;;;;;8425497;28;20067;-53
2024/02/16 19:46:45;;;;;;;0.50;0.50;;;18.90;44.20;;;;;;8425674;28;20112;-54
2024/02/16 19:50:46;;;;;;;0.40;0.40;;;18.80;44.10;;;;;;8426387;28;20028;-54
2024/02/16 19:54:47;;;;;;;0.38;0.38;;;18.80;44.20;;;;;;8431936;28;20047;-54
2024/02/16 19:58:50;;;;;;;0.50;0.50;;;18.80;44.20;;;;;;8431465;28;20038;-53
2024/02/16 20:02:52;;;;;;;0.68;0.52;;;18.80;44.10;;;;;;8431824;28;20089;-53
2024/02/16 20:06:52;;;;;;;0.50;0.50;;;18.80;44.20;;;;;;8431284;28;20477;-53
2024/02/16 20:10:53;;;;;;;0.50;0.40;;;18.80;44.20;;;;;;8431777;28;20423;-53
2024/02/16 20:14:55;;;;;;;0.40;0.40;;;18.80;44.20;;;;;;8430978;28;20055;-54
2024/02/16 20:18:57;;;;;;;0.30;0.30;;;18.80;44.20;;;;;;8430981;28;20020;-54
2024/02/16 20:22:58;;;;;;;0.40;0.40;;;18.80;44.20;;;;;;8430957;28;20566;-53
2024/02/16 20:27:00;;;;;;;0.98;0.70;;;18.80;44.20;;;;;;8430352;28;20593;-53
2024/02/16 20:31:05;;;;;;;0.50;0.50;;;18.80;44.10;;;;;;8430724;28;20066;-54
2024/02/16 20:35:06;;;;;;;0.50;0.32;;;18.90;44.10;;;;;;8413115;28;20031;-54
2024/02/16 20:39:07;;;;;;;0.43;0.40;;;18.90;44.10;;;;;;8430868;28;20020;-55
2024/02/16 20:43:08;;;;;;;0.68;0.68;;;18.90;44.10;;;;;;8430188;28;20138;-53
2024/02/16 20:47:09;;;;;;;0.55;0.55;;;18.90;44.10;;;;;;8430240;28;20542;-54
2024/02/16 20:51:09;;;;;;;0.40;0.40;;;18.90;44.10;;;;;;8412037;28;20032;-55
2024/02/16 20:55:10;;;;;;;0.60;0.40;;;18.90;44.10;;;;;;8411582;28;20050;-54
2024/02/16 20:59:11;;;;;;;0.65;0.63;;;18.90;44.10;;;;;;8429780;28;20076;-53